Time;durP1;ratioP1;P1;durP2;ratioP2;P2;SDS_P1;SDS_P2;PMS_P1;PMS_P2;Temp;Humidity;BMP_temperature;BMP_pressure;BME280_temperature;BME280_humidity;BME280_pressure;Samples;Min_cycle;Max_cycle;Signal;HPM_P1;HPM_P2
2023/05/07 00:02:22;;;;;;;6.17;2.27;;;5.50;99.90;;;;;;5013361;28;20177;-82
2023/05/07 00:04:48;;;;;;;2.70;1.73;;;;;;;;;;5013715;28;20169;-83
2023/05/07 00:07:15;;;;;;;4.53;2.20;;;5.50;99.90;;;;;;5013599;28;20177;-82
2023/05/07 00:09:40;;;;;;;3.00;2.17;;;5.50;99.90;;;;;;5012085;28;20184;-82
2023/05/07 00:12:07;;;;;;;3.77;1.83;;;5.50;99.90;;;;;;5013731;28;20592;-83
2023/05/07 00:14:32;;;;;;;3.40;1.60;;;5.50;99.90;;;;;;5013732;28;20176;-83
2023/05/07 00:16:58;;;;;;;2.47;2.17;;;5.50;99.90;;;;;;5045151;28;20300;-83
2023/05/07 00:19:24;;;;;;;3.33;1.80;;;5.40;99.90;;;;;;5012504;28;20174;-83
2023/05/07 00:21:50;;;;;;;1.97;1.77;;;5.50;99.90;;;;;;5013196;28;20169;-82
2023/05/07 00:24:15;;;;;;;2.03;1.43;;;5.50;99.90;;;;;;5045308;28;20177;-83
2023/05/07 00:26:41;;;;;;;3.90;2.50;;;5.40;99.90;;;;;;5013356;28;20646;-83
2023/05/07 00:29:07;;;;;;;3.23;1.80;;;5.50;99.90;;;;;;5013599;28;20173;-83
2023/05/07 00:31:32;;;;;;;2.13;1.47;;;5.40;99.90;;;;;;5013616;28;20172;-83
2023/05/07 00:33:59;;;;;;;2.07;1.83;;;;;;;;;;5013417;28;20504;-83
2023/05/07 00:36:26;;;;;;;3.20;2.23;;;5.40;99.90;;;;;;5011796;28;20232;-83
2023/05/07 00:38:51;;;;;;;2.10;1.50;;;5.30;99.90;;;;;;5013445;28;20241;-83
2023/05/07 00:41:17;;;;;;;1.90;1.63;;;5.40;99.90;;;;;;5012332;28;20189;-83
2023/05/07 00:43:43;;;;;;;1.57;1.47;;;5.30;99.90;;;;;;5045230;28;20188;-83
2023/05/07 00:46:08;;;;;;;2.13;1.30;;;5.30;99.90;;;;;;5013432;28;20189;-83
2023/05/07 00:48:34;;;;;;;1.43;1.30;;;5.30;99.90;;;;;;5012243;28;20276;-83
2023/05/07 00:51:00;;;;;;;3.30;2.43;;;5.60;99.90;;;;;;5011791;28;20192;-83
2023/05/07 00:53:26;;;;;;;1.83;1.60;;;5.30;99.90;;;;;;5028586;28;20538;-83
2023/05/07 00:55:52;;;;;;;2.77;1.80;;;5.30;99.90;;;;;;5011971;28;20178;-83
2023/05/07 00:58:18;;;;;;;1.40;1.27;;;5.30;99.90;;;;;;5013095;28;20180;-82
2023/05/07 01:00:43;;;;;;;1.80;1.70;;;5.30;99.90;;;;;;5011906;28;20184;-83
2023/05/07 01:03:09;;;;;;;1.87;1.50;;;5.30;99.90;;;;;;4995651;28;20243;-82
2023/05/07 01:05:35;;;;;;;2.97;1.93;;;5.30;99.90;;;;;;5012078;28;20178;-82
2023/05/07 01:08:02;;;;;;;2.30;1.50;;;5.30;99.90;;;;;;5011869;28;20181;-82
2023/05/07 01:10:30;;;;;;;3.20;1.30;;;5.30;99.90;;;;;;5011948;28;20177;-82
2023/05/07 01:12:58;;;;;;;2.20;1.50;;;5.30;99.90;;;;;;5013043;28;20170;-83
2023/05/07 01:15:23;;;;;;;1.53;1.23;;;5.30;99.90;;;;;;5013741;28;20177;-83
2023/05/07 01:17:49;;;;;;;1.37;1.27;;;5.30;99.90;;;;;;5016923;28;20232;-83
2023/05/07 01:20:15;;;;;;;4.43;1.50;;;5.30;99.90;;;;;;4999254;28;20268;-82
2023/05/07 01:22:42;;;;;;;1.70;1.60;;;5.30;99.90;;;;;;5016750;28;20177;-82
2023/05/07 01:25:08;;;;;;;1.80;1.33;;;5.30;99.90;;;;;;5032000;28;20550;-82
2023/05/07 01:27:35;;;;;;;1.30;1.20;;;5.50;99.90;;;;;;5015457;28;20177;-82
2023/05/07 01:30:01;;;;;;;1.00;1.00;;;5.30;99.90;;;;;;5017203;28;20176;-84
2023/05/07 01:32:35;;;;;;;1.70;1.20;;;5.30;99.90;;;;;;5034025;28;20185;-81
2023/05/07 01:35:03;;;;;;;1.83;1.57;;;5.30;99.90;;;;;;5050922;28;20177;-82
2023/05/07 01:37:29;;;;;;;1.50;1.40;;;5.30;99.90;;;;;;5050518;28;20240;-82
2023/05/07 01:39:55;;;;;;;1.57;1.40;;;5.30;99.90;;;;;;5060044;28;20172;-85
2023/05/07 01:42:22;;;;;;;1.63;1.37;;;5.30;99.90;;;;;;5040910;28;20176;-83
2023/05/07 01:44:48;;;;;;;1.73;1.50;;;5.30;99.90;;;;;;5040611;28;20196;-82
2023/05/07 01:47:14;;;;;;;1.70;1.60;;;5.30;99.90;;;;;;5040811;28;20161;-83
2023/05/07 01:49:40;;;;;;;1.53;1.40;;;5.30;99.90;;;;;;5030978;28;20182;-83
2023/05/07 01:52:06;;;;;;;1.63;1.50;;;;;;;;;;5017803;28;20239;-83
2023/05/07 01:54:32;;;;;;;3.30;1.57;;;5.30;99.90;;;;;;5027995;28;20173;-82
2023/05/07 01:56:58;;;;;;;2.33;1.80;;;5.30;99.90;;;;;;5073011;28;20200;-85
2023/05/07 01:59:23;;;;;;;1.50;1.40;;;5.30;99.90;;;;;;5040042;28;20173;-83
2023/05/07 02:01:49;;;;;;;1.33;1.23;;;5.30;99.90;;;;;;5036992;28;20248;-83
2023/05/07 02:04:15;;;;;;;0.90;0.87;;;5.30;99.90;;;;;;5031618;28;20188;-83
2023/05/07 02:06:40;;;;;;;1.30;1.20;;;5.30;99.90;;;;;;5015794;28;20244;-83
2023/05/07 02:09:06;;;;;;;1.47;1.37;;;5.30;99.90;;;;;;5016030;28;20256;-83
2023/05/07 02:11:32;;;;;;;2.27;1.53;;;5.30;99.90;;;;;;5014797;28;20181;-83
2023/05/07 02:13:57;;;;;;;2.37;1.37;;;5.20;99.90;;;;;;5047352;28;20280;-83
2023/05/07 02:16:23;;;;;;;2.63;1.67;;;5.20;99.90;;;;;;4998017;28;20616;-82
2023/05/07 02:18:49;;;;;;;1.27;1.17;;;;;;;;;;5047665;28;20208;-82
2023/05/07 02:21:15;;;;;;;2.13;1.20;;;5.20;99.90;;;;;;5030827;28;20299;-82
2023/05/07 02:23:41;;;;;;;1.20;1.10;;;5.10;99.90;;;;;;5047375;28;20670;-82
2023/05/07 02:26:06;;;;;;;1.13;0.90;;;5.10;99.90;;;;;;5030074;28;20685;-82
2023/05/07 02:28:35;;;;;;;1.40;1.30;;;5.20;99.90;;;;;;5015905;28;20220;-82
2023/05/07 02:31:02;;;;;;;1.33;1.23;;;5.10;99.90;;;;;;5014960;28;20634;-82
2023/05/07 02:33:28;;;;;;;1.33;1.07;;;;;;;;;;5015750;28;20177;-82
2023/05/07 02:35:54;;;;;;;1.77;1.50;;;5.10;99.90;;;;;;5013968;28;20653;-82
2023/05/07 02:38:19;;;;;;;2.20;1.60;;;5.50;99.90;;;;;;5046681;28;20327;-83
2023/05/07 02:40:45;;;;;;;1.40;1.13;;;5.10;99.90;;;;;;5031157;28;20285;-82
2023/05/07 02:43:12;;;;;;;1.50;1.37;;;5.10;99.90;;;;;;5046975;28;20185;-82
2023/05/07 02:45:37;;;;;;;1.63;1.10;;;5.10;99.90;;;;;;5014955;28;20235;-82
2023/05/07 02:48:05;;;;;;;1.17;1.07;;;5.10;99.90;;;;;;5015210;28;20613;-83
2023/05/07 02:50:32;;;;;;;1.30;1.20;;;5.10;99.90;;;;;;5015380;28;20180;-82
2023/05/07 02:52:59;;;;;;;1.23;1.13;;;5.10;99.90;;;;;;5013913;28;20184;-81
2023/05/07 02:55:25;;;;;;;1.60;1.40;;;5.10;99.90;;;;;;5014859;28;20638;-81
2023/05/07 02:57:50;;;;;;;1.23;1.10;;;5.10;99.90;;;;;;5013538;28;20213;-81
2023/05/07 03:00:20;;;;;;;1.37;1.10;;;5.00;99.90;;;;;;4996987;28;20598;-81
2023/05/07 03:02:46;;;;;;;2.17;1.27;;;5.00;99.90;;;;;;5046866;28;20208;-80
2023/05/07 03:05:12;;;;;;;1.00;1.00;;;5.00;99.90;;;;;;5013463;28;20639;-81
2023/05/07 03:07:38;;;;;;;1.03;1.03;;;5.20;99.90;;;;;;5014858;28;20185;-81
2023/05/07 03:10:04;;;;;;;1.27;1.17;;;5.00;99.90;;;;;;5014330;28;20611;-82
2023/05/07 03:12:31;;;;;;;2.13;1.30;;;;;;;;;;5014695;28;20634;-84
2023/05/07 03:14:57;;;;;;;1.43;1.10;;;4.90;99.90;;;;;;5013372;28;20192;-82
2023/05/07 03:17:22;;;;;;;1.37;1.23;;;4.90;99.90;;;;;;5014077;28;20216;-82
2023/05/07 03:19:49;;;;;;;2.43;1.47;;;4.90;99.90;;;;;;5013063;28;20192;-82
2023/05/07 03:22:15;;;;;;;1.57;0.97;;;4.90;99.90;;;;;;5014545;28;20189;-81
2023/05/07 03:24:41;;;;;;;1.00;1.00;;;4.90;99.90;;;;;;5029994;28;20359;-83
2023/05/07 03:27:06;;;;;;;1.17;1.17;;;6.30;99.90;;;;;;5013574;28;20243;-82
2023/05/07 03:29:32;;;;;;;1.10;1.00;;;4.90;99.90;;;;;;5014094;28;20637;-82
2023/05/07 03:31:58;;;;;;;0.93;0.90;;;4.90;99.90;;;;;;5014304;28;20653;-83
2023/05/07 03:34:24;;;;;;;8.77;1.47;;;;;;;;;;5012750;28;20182;-82
2023/05/07 03:36:50;;;;;;;1.93;1.73;;;;;;;;;;5028854;28;20245;-83
2023/05/07 03:39:15;;;;;;;1.20;1.10;;;4.90;99.90;;;;;;5012706;28;20181;-83
2023/05/07 03:41:41;;;;;;;1.20;0.83;;;4.80;99.90;;;;;;5029854;28;20208;-83
2023/05/07 03:44:07;;;;;;;1.00;1.00;;;;;;;;;;5029170;28;20223;-84
2023/05/07 03:46:33;;;;;;;2.10;1.40;;;4.80;99.90;;;;;;5014114;28;20181;-82
2023/05/07 03:49:00;;;;;;;2.07;1.50;;;4.90;99.90;;;;;;5012866;28;20182;-83
2023/05/07 03:51:25;;;;;;;1.73;1.33;;;4.80;99.90;;;;;;5012415;28;20184;-82
2023/05/07 03:53:56;;;;;;;3.87;1.27;;;4.80;99.90;;;;;;5012811;28;20630;-82
2023/05/07 03:56:26;;;;;;;2.07;1.30;;;4.80;99.90;;;;;;5013781;28;20248;-83
2023/05/07 03:58:52;;;;;;;1.90;1.20;;;4.80;99.90;;;;;;5013924;28;20223;-82
2023/05/07 04:01:17;;;;;;;1.30;1.20;;;4.80;99.90;;;;;;5013663;28;20189;-83
2023/05/07 04:03:43;;;;;;;1.07;1.00;;;4.80;99.90;;;;;;5012285;28;20192;-83
2023/05/07 04:06:09;;;;;;;1.53;1.40;;;4.70;99.90;;;;;;5013700;28;20182;-85
2023/05/07 04:08:35;;;;;;;1.40;1.30;;;;;;;;;;5012768;28;20181;-83
2023/05/07 04:11:01;;;;;;;1.80;1.40;;;4.70;99.90;;;;;;5013483;28;20173;-83
2023/05/07 04:13:27;;;;;;;1.10;1.10;;;;;;;;;;5013480;28;20677;-84
2023/05/07 04:15:54;;;;;;;1.43;1.20;;;4.80;99.90;;;;;;5013328;28;20308;-83
2023/05/07 04:18:21;;;;;;;1.90;1.47;;;4.70;99.90;;;;;;5013184;28;20549;-84
2023/05/07 04:20:49;;;;;;;0.80;0.80;;;4.70;99.90;;;;;;5029059;28;20523;-83
2023/05/07 04:23:14;;;;;;;2.90;1.53;;;4.70;99.90;;;;;;5013114;28;20196;-83
2023/05/07 04:25:40;;;;;;;2.93;1.40;;;4.70;99.90;;;;;;5045415;28;20631;-83
2023/05/07 04:28:06;;;;;;;1.90;1.80;;;4.80;99.90;;;;;;5045498;28;20642;-83
2023/05/07 04:30:31;;;;;;;1.00;0.90;;;4.70;99.90;;;;;;5012397;28;20658;-83
2023/05/07 04:32:57;;;;;;;1.10;1.07;;;4.70;99.90;;;;;;5013592;28;20625;-83
2023/05/07 04:35:23;;;;;;;1.20;1.10;;;4.70;99.90;;;;;;5013369;28;20255;-83
2023/05/07 04:37:48;;;;;;;1.07;0.93;;;4.70;99.90;;;;;;5013396;28;20299;-84
2023/05/07 04:40:14;;;;;;;1.10;0.97;;;4.70;99.90;;;;;;5013527;28;20224;-83
2023/05/07 04:42:41;;;;;;;1.47;1.13;;;4.70;99.90;;;;;;5013445;28;20185;-83
2023/05/07 04:45:08;;;;;;;4.37;1.27;;;4.70;99.90;;;;;;5011988;28;20188;-83
2023/05/07 04:47:34;;;;;;;1.67;1.20;;;;;;;;;;5013249;28;20698;-84
2023/05/07 04:50:00;;;;;;;2.57;1.47;;;4.70;99.90;;;;;;5015126;28;20243;-83
2023/05/07 04:52:26;;;;;;;0.80;0.80;;;4.70;99.90;;;;;;5032510;28;20646;-83
2023/05/07 04:54:52;;;;;;;3.77;1.60;;;4.70;99.90;;;;;;5017371;28;20263;-83
2023/05/07 04:57:17;;;;;;;1.63;1.40;;;4.70;99.90;;;;;;5048873;28;20666;-83
2023/05/07 04:59:44;;;;;;;1.07;1.07;;;4.70;99.90;;;;;;5016152;28;20268;-84
2023/05/07 05:02:12;;;;;;;1.20;1.10;;;4.70;99.90;;;;;;5017212;28;20180;-83
2023/05/07 05:04:38;;;;;;;1.07;0.93;;;4.70;99.90;;;;;;5031999;28;20545;-83
2023/05/07 05:07:04;;;;;;;1.57;1.40;;;4.70;99.90;;;;;;5016220;28;20189;-82
2023/05/07 05:09:30;;;;;;;0.93;0.93;;;;;;;;;;5015521;28;20537;-84
2023/05/07 05:11:56;;;;;;;1.50;1.40;;;;;;;;;;5015492;28;20185;-83
2023/05/07 05:14:22;;;;;;;1.50;1.40;;;4.70;99.90;;;;;;5016529;28;20181;-82
2023/05/07 05:16:47;;;;;;;2.37;1.50;;;4.60;99.90;;;;;;5016742;28;20217;-83
2023/05/07 05:19:13;;;;;;;1.60;1.20;;;4.70;99.90;;;;;;5048799;28;20284;-83
2023/05/07 05:21:39;;;;;;;1.17;1.03;;;;;;;;;;5020063;28;20185;-82
2023/05/07 05:24:05;;;;;;;1.50;1.40;;;4.70;99.90;;;;;;5030565;28;20247;-90
2023/05/07 05:26:31;;;;;;;5.13;2.90;;;;;;;;;;5048860;28;20189;-90
2023/05/07 05:28:56;;;;;;;3.03;1.93;;;4.70;99.90;;;;;;5031959;28;20622;-89
2023/05/07 05:31:22;;;;;;;2.90;1.83;;;5.70;99.90;;;;;;5016296;28;20177;-89
2023/05/07 05:33:48;;;;;;;2.10;1.90;;;5.00;99.90;;;;;;5048220;28;20540;-88
2023/05/07 05:36:13;;;;;;;5.13;3.13;;;4.60;99.90;;;;;;5048164;28;20635;-88
2023/05/07 05:38:40;;;;;;;2.03;1.83;;;4.60;99.90;;;;;;5016525;28;20288;-87
2023/05/07 05:41:05;;;;;;;1.67;1.57;;;4.60;99.90;;;;;;5016963;28;20185;-88
2023/05/07 05:43:31;;;;;;;1.63;1.47;;;;;;;;;;5031717;28;20196;-90
2023/05/07 05:45:58;;;;;;;1.73;1.63;;;;;;;;;;5016144;28;20182;-88
2023/05/07 05:48:24;;;;;;;1.60;1.50;;;4.60;99.90;;;;;;5031598;28;20217;-88
2023/05/07 05:50:49;;;;;;;4.33;1.20;;;4.60;99.90;;;;;;5049148;28;20605;-91
2023/05/07 05:53:15;;;;;;;1.40;1.20;;;4.60;99.90;;;;;;5049057;28;20189;-84
2023/05/07 05:55:42;;;;;;;1.77;1.43;;;4.60;99.90;;;;;;5015287;28;20619;-83
2023/05/07 05:58:08;;;;;;;1.30;1.20;;;4.60;99.90;;;;;;5014381;28;20208;-84
2023/05/07 06:00:34;;;;;;;2.87;2.00;;;;;;;;;;5014537;28;20189;-85
2023/05/07 06:03:00;;;;;;;1.97;1.63;;;4.60;99.90;;;;;;5015477;28;20265;-84
2023/05/07 06:05:26;;;;;;;1.70;1.60;;;4.60;99.90;;;;;;5014014;28;20264;-85
2023/05/07 06:07:51;;;;;;;1.43;1.30;;;4.90;99.90;;;;;;5015160;28;20203;-83
2023/05/07 06:10:17;;;;;;;1.40;1.30;;;4.60;99.90;;;;;;5014249;28;20177;-83
2023/05/07 06:12:44;;;;;;;1.73;1.47;;;4.70;99.90;;;;;;5013847;28;20181;-83
2023/05/07 06:15:10;;;;;;;1.70;1.23;;;4.70;99.90;;;;;;5012131;28;20188;-83
2023/05/07 06:17:36;;;;;;;1.30;1.20;;;4.70;99.90;;;;;;5013535;28;20570;-82
2023/05/07 06:20:02;;;;;;;1.53;1.43;;;4.70;99.90;;;;;;4996971;28;20199;-80
2023/05/07 06:22:28;;;;;;;1.70;1.60;;;;;;;;;;5013173;28;20220;-83
2023/05/07 06:24:53;;;;;;;1.47;1.37;;;4.70;99.90;;;;;;5013126;28;20189;-83
2023/05/07 06:27:19;;;;;;;1.60;1.50;;;4.70;99.90;;;;;;5046694;28;20200;-82
2023/05/07 06:29:45;;;;;;;1.40;1.30;;;4.90;99.90;;;;;;5029994;28;20185;-83
2023/05/07 06:32:12;;;;;;;2.30;2.10;;;4.80;99.90;;;;;;5014887;28;20665;-84
2023/05/07 06:34:38;;;;;;;6.50;1.80;;;4.80;99.90;;;;;;5014511;28;20177;-83
2023/05/07 06:37:04;;;;;;;2.50;1.97;;;4.70;99.90;;;;;;5015470;28;20386;-82
2023/05/07 06:39:30;;;;;;;3.43;2.73;;;4.80;99.90;;;;;;5014704;28;20177;-83
2023/05/07 06:41:56;;;;;;;17.43;6.50;;;4.70;99.90;;;;;;5014441;28;20672;-81
2023/05/07 06:44:21;;;;;;;14.80;7.07;;;4.80;99.90;;;;;;4980982;28;20213;-81
2023/05/07 06:46:47;;;;;;;3.53;2.03;;;5.00;99.90;;;;;;4996960;28;20280;-83
2023/05/07 06:49:14;;;;;;;2.63;2.03;;;4.80;99.90;;;;;;5014497;28;20639;-83
2023/05/07 06:51:39;;;;;;;1.80;1.57;;;4.80;99.90;;;;;;5013836;28;20268;-84
2023/05/07 06:54:05;;;;;;;1.93;1.83;;;4.90;99.90;;;;;;5048749;28;20268;-84
2023/05/07 06:56:34;;;;;;;2.07;1.63;;;4.90;99.90;;;;;;5013193;28;20544;-84
2023/05/07 06:59:01;;;;;;;2.80;1.60;;;4.80;99.90;;;;;;5014975;28;20264;-85
2023/05/07 07:01:27;;;;;;;2.67;1.90;;;4.80;99.90;;;;;;5014692;28;20177;-84
2023/05/07 07:03:53;;;;;;;3.40;1.90;;;4.90;99.90;;;;;;4996582;28;20602;-84
2023/05/07 07:06:19;;;;;;;2.13;1.90;;;4.50;99.90;;;;;;5012919;28;20650;-83
2023/05/07 07:08:46;;;;;;;2.83;1.83;;;4.90;99.90;;;;;;5013188;28;20188;-81
2023/05/07 07:11:12;;;;;;;3.63;1.97;;;;;;;;;;5046696;28;20590;-86
2023/05/07 07:13:40;;;;;;;14.27;6.03;;;4.90;99.90;;;;;;5015169;28;20197;-81
2023/05/07 07:16:06;;;;;;;36.00;13.87;;;5.00;99.90;;;;;;5012110;28;20676;-83
2023/05/07 07:18:31;;;;;;;11.27;5.57;;;4.90;99.90;;;;;;5013160;28;20196;-83
2023/05/07 07:20:57;;;;;;;17.90;4.90;;;5.00;99.90;;;;;;5012275;28;20181;-83
2023/05/07 07:23:23;;;;;;;7.73;3.43;;;5.00;99.90;;;;;;4996874;28;20224;-83
2023/05/07 07:25:49;;;;;;;6.13;3.77;;;5.00;99.90;;;;;;5013679;28;20239;-83
2023/05/07 07:28:15;;;;;;;3.03;1.93;;;5.00;99.90;;;;;;5015792;28;20185;-83
2023/05/07 07:30:41;;;;;;;4.10;2.30;;;5.00;99.90;;;;;;5025678;28;20181;-83
2023/05/07 07:33:07;;;;;;;3.17;2.37;;;5.00;99.90;;;;;;5023923;28;20785;-85
2023/05/07 07:35:33;;;;;;;16.43;5.87;;;5.10;99.90;;;;;;5036766;28;20530;-85
2023/05/07 07:38:01;;;;;;;2.47;2.00;;;5.10;99.90;;;;;;5021653;28;20235;-83
2023/05/07 07:40:27;;;;;;;7.73;3.70;;;5.20;99.90;;;;;;5022682;28;20209;-83
2023/05/07 07:42:53;;;;;;;2.67;1.97;;;5.10;99.90;;;;;;5035423;28;20282;-83
2023/05/07 07:45:20;;;;;;;3.83;2.53;;;5.20;99.90;;;;;;5035652;28;20180;-85
2023/05/07 07:47:45;;;;;;;3.20;2.43;;;5.20;99.90;;;;;;5034500;28;20181;-84
2023/05/07 07:50:12;;;;;;;3.90;2.83;;;5.20;99.90;;;;;;5017543;28;20275;-84
2023/05/07 07:52:37;;;;;;;2.73;2.23;;;5.20;99.90;;;;;;5030328;28;20200;-87
2023/05/07 07:55:04;;;;;;;6.53;2.73;;;5.30;99.90;;;;;;5010936;28;20559;-87
2023/05/07 07:57:30;;;;;;;2.93;2.30;;;;;;;;;;5067120;28;20888;-90
2023/05/07 07:59:56;;;;;;;3.53;1.90;;;5.30;99.90;;;;;;5030371;28;20189;-86
2023/05/07 08:02:22;;;;;;;2.90;2.00;;;5.30;99.90;;;;;;5047683;28;20216;-84
2023/05/07 08:04:48;;;;;;;3.43;2.27;;;;;;;;;;4999465;28;20189;-83
2023/05/07 08:07:13;;;;;;;4.30;2.70;;;5.30;99.90;;;;;;5011543;28;20196;-83
2023/05/07 08:09:40;;;;;;;9.27;2.60;;;5.40;99.90;;;;;;5029173;28;20189;-87
2023/05/07 08:12:11;;;;;;;3.17;2.63;;;5.40;99.90;;;;;;4997396;28;20639;-87
2023/05/07 08:14:38;;;;;;;6.77;3.63;;;5.40;99.90;;;;;;5010053;28;20184;-83
2023/05/07 08:17:03;;;;;;;9.43;3.77;;;5.50;99.90;;;;;;5011216;28;20545;-85
2023/05/07 08:19:29;;;;;;;6.57;3.60;;;5.50;99.90;;;;;;5015091;28;20204;-83
2023/05/07 08:21:55;;;;;;;3.90;2.60;;;5.50;99.90;;;;;;5010693;28;20185;-84
2023/05/07 08:24:21;;;;;;;6.03;3.93;;;5.40;99.90;;;;;;5010468;28;20279;-84
2023/05/07 08:26:46;;;;;;;2.70;2.37;;;5.50;99.90;;;;;;5011739;28;20264;-85
2023/05/07 08:29:14;;;;;;;3.63;2.40;;;5.50;99.90;;;;;;5014129;28;20197;-85
2023/05/07 08:31:39;;;;;;;4.40;2.13;;;5.50;99.90;;;;;;5012016;28;20197;-84
2023/05/07 08:34:06;;;;;;;7.50;5.57;;;5.50;99.90;;;;;;5018427;28;20188;-84
2023/05/07 08:36:32;;;;;;;9.47;4.53;;;5.50;99.90;;;;;;5011732;28;20216;-86
2023/05/07 08:38:59;;;;;;;16.97;5.30;;;5.50;99.90;;;;;;5043024;28;20262;-84
2023/05/07 08:41:24;;;;;;;6.37;2.70;;;5.60;99.90;;;;;;5011128;28;20741;-83
2023/05/07 08:43:51;;;;;;;7.07;4.10;;;5.60;99.90;;;;;;5010467;28;20193;-83
2023/05/07 08:46:19;;;;;;;4.33;2.33;;;5.70;99.90;;;;;;5011908;28;20661;-84
2023/05/07 08:48:47;;;;;;;5.10;3.20;;;5.60;99.90;;;;;;5010073;28;20211;-85
2023/05/07 08:51:15;;;;;;;3.40;2.77;;;5.90;99.90;;;;;;5020779;28;20191;-84
2023/05/07 08:53:42;;;;;;;10.57;4.07;;;5.70;99.90;;;;;;5004435;28;20643;-87
2023/05/07 08:56:11;;;;;;;8.45;4.70;;;5.70;99.90;;;;;;4994113;28;20427;-83
2023/05/07 08:58:37;;;;;;;8.63;3.20;;;5.70;99.90;;;;;;5008612;28;20189;-84
2023/05/07 09:01:13;;;;;;;8.33;3.47;;;5.70;99.90;;;;;;5008452;28;20185;-84
2023/05/07 09:03:40;;;;;;;4.00;2.80;;;5.70;99.90;;;;;;5008601;28;20646;-84
2023/05/07 09:06:06;;;;;;;4.70;3.13;;;;;;;;;;5009395;28;20180;-84
2023/05/07 09:08:35;;;;;;;4.63;3.30;;;5.80;99.90;;;;;;5042877;28;20169;-85
2023/05/07 09:11:02;;;;;;;7.90;3.40;;;;;;;;;;5017870;28;20192;-86
2023/05/07 09:13:29;;;;;;;4.90;2.97;;;5.80;99.90;;;;;;4998172;28;20195;-84
2023/05/07 09:15:55;;;;;;;5.93;4.03;;;5.80;99.90;;;;;;5039240;28;20300;-83
2023/05/07 09:18:21;;;;;;;3.97;2.63;;;;;;;;;;5041946;28;20233;-85
2023/05/07 09:20:48;;;;;;;3.97;2.67;;;5.80;99.90;;;;;;5039765;28;20721;-85
2023/05/07 09:23:15;;;;;;;18.53;5.93;;;;;;;;;;5008139;28;20758;-83
2023/05/07 09:25:41;;;;;;;6.87;4.10;;;;;;;;;;4991807;28;20186;-84
2023/05/07 09:28:07;;;;;;;5.37;2.97;;;5.90;99.90;;;;;;5011958;28;20204;-84
2023/05/07 09:30:34;;;;;;;5.47;2.83;;;5.90;99.90;;;;;;5006621;28;20192;-85
2023/05/07 09:33:01;;;;;;;5.13;3.43;;;6.30;99.90;;;;;;5012237;28;20192;-84
2023/05/07 09:35:28;;;;;;;4.97;2.70;;;6.00;99.90;;;;;;5036844;28;20190;-85
2023/05/07 09:37:58;;;;;;;6.83;3.70;;;6.00;99.90;;;;;;5013523;28;20236;-85
2023/05/07 09:40:28;;;;;;;7.00;3.47;;;6.00;99.90;;;;;;5014267;28;20200;-84
2023/05/07 09:42:54;;;;;;;4.53;2.20;;;5.90;99.90;;;;;;5010054;28;20185;-84
2023/05/07 09:45:26;;;;;;;3.27;2.67;;;5.90;99.90;;;;;;5035228;28;20268;-86
2023/05/07 09:47:57;;;;;;;3.87;2.33;;;5.90;99.90;;;;;;4998333;28;20189;-84
2023/05/07 09:50:29;;;;;;;5.20;2.73;;;5.80;99.90;;;;;;5001634;28;20189;-84
2023/05/07 09:52:56;;;;;;;7.03;2.90;;;5.80;99.90;;;;;;5038356;28;20315;-85
2023/05/07 09:55:23;;;;;;;4.97;2.17;;;6.00;99.90;;;;;;5004319;28;20685;-84
2023/05/07 09:57:52;;;;;;;5.03;3.03;;;5.80;99.90;;;;;;5015625;28;20229;-89
2023/05/07 10:00:19;;;;;;;4.23;2.80;;;5.80;99.90;;;;;;5015014;28;20181;-83
2023/05/07 10:02:51;;;;;;;5.37;2.33;;;5.80;99.90;;;;;;5007340;28;20196;-83
2023/05/07 10:05:22;;;;;;;2.70;2.07;;;5.90;99.90;;;;;;5035856;28;20200;-85
2023/05/07 10:07:48;;;;;;;3.33;2.13;;;5.80;99.90;;;;;;5009410;28;20174;-84
2023/05/07 10:10:15;;;;;;;5.43;3.00;;;5.80;99.90;;;;;;5012974;28;20308;-86
2023/05/07 10:12:41;;;;;;;5.60;3.30;;;5.90;99.90;;;;;;5047076;28;20194;-84
2023/05/07 10:15:08;;;;;;;24.97;10.73;;;5.90;99.90;;;;;;5018632;28;20216;-86
2023/05/07 10:17:38;;;;;;;42.37;17.00;;;5.90;99.90;;;;;;5022532;28;21006;-86
2023/05/07 10:20:05;;;;;;;10.50;4.50;;;5.90;99.90;;;;;;5030857;28;20193;-87
2023/05/07 10:22:44;;;;;;;9.70;6.17;;;5.90;99.90;;;;;;5027494;28;20192;-89
2023/05/07 10:25:29;;;;;;;7.00;4.33;;;5.90;99.90;;;;;;5024862;28;20181;-87
2023/05/07 10:28:00;;;;;;;2.50;2.20;;;5.90;99.90;;;;;;5029656;28;20208;-85
2023/05/07 10:30:43;;;;;;;2.63;1.70;;;5.90;99.90;;;;;;5011325;28;20189;-86
2023/05/07 10:33:11;;;;;;;1.80;1.57;;;5.90;99.90;;;;;;5046863;28;20180;-86
2023/05/07 10:35:46;;;;;;;5.43;2.33;;;5.90;99.90;;;;;;5011247;28;20184;-85
2023/05/07 10:38:13;;;;;;;3.97;2.30;;;6.10;99.90;;;;;;5012038;28;20689;-87
2023/05/07 10:40:40;;;;;;;2.80;1.90;;;5.90;99.90;;;;;;5016376;28;20188;-85
2023/05/07 10:43:06;;;;;;;2.87;2.00;;;5.90;99.90;;;;;;5029569;28;20276;-87
2023/05/07 10:45:32;;;;;;;5.17;2.37;;;;;;;;;;5013746;28;20181;-85
2023/05/07 10:48:15;;;;;;;3.77;2.20;;;6.10;99.90;;;;;;4995995;28;20189;-86
2023/05/07 10:50:42;;;;;;;3.70;1.87;;;6.00;99.90;;;;;;5010952;28;20666;-85
2023/05/07 10:53:17;;;;;;;4.33;2.37;;;6.00;99.90;;;;;;5014039;28;20688;-85
2023/05/07 10:55:43;;;;;;;2.50;2.20;;;;;;;;;;5014628;28;20665;-83
2023/05/07 10:58:21;;;;;;;2.60;2.20;;;6.00;99.90;;;;;;5029312;28;20239;-84
2023/05/07 11:00:47;;;;;;;4.03;2.50;;;6.10;99.90;;;;;;5013442;28;20224;-83
2023/05/07 11:03:14;;;;;;;3.87;2.53;;;6.10;99.90;;;;;;5044121;28;20185;-83
2023/05/07 11:05:42;;;;;;;4.80;2.67;;;6.10;99.90;;;;;;5011552;28;20248;-81
2023/05/07 11:08:10;;;;;;;4.47;2.47;;;6.10;99.90;;;;;;5012386;28;20280;-85
2023/05/07 11:10:49;;;;;;;11.20;4.20;;;6.10;99.90;;;;;;5013943;28;20627;-82
2023/05/07 11:13:16;;;;;;;8.17;4.40;;;6.10;99.90;;;;;;5012883;28;20185;-81
2023/05/07 11:15:48;;;;;;;7.53;4.00;;;6.20;99.90;;;;;;5013462;28;20185;-82
2023/05/07 11:18:16;;;;;;;14.27;5.57;;;6.20;99.90;;;;;;5012088;28;20537;-84
2023/05/07 11:20:52;;;;;;;12.37;5.63;;;6.30;99.90;;;;;;5011266;28;20185;-85
2023/05/07 11:23:37;;;;;;;10.43;5.20;;;6.20;99.90;;;;;;5044981;28;20192;-84
2023/05/07 11:26:20;;;;;;;13.83;5.60;;;6.30;99.90;;;;;;5012847;28;20177;-84
2023/05/07 11:28:47;;;;;;;10.00;5.40;;;;;;;;;;5012176;28;20847;-86
2023/05/07 11:31:13;;;;;;;4.10;2.73;;;;;;;;;;5011665;28;20243;-84
2023/05/07 11:33:39;;;;;;;6.20;2.87;;;6.40;99.90;;;;;;5029512;28;20603;-86
2023/05/07 11:36:07;;;;;;;2.80;1.90;;;6.30;99.90;;;;;;4995832;28;20185;-86
2023/05/07 11:38:38;;;;;;;2.57;2.10;;;6.30;99.90;;;;;;5012224;28;20267;-85
2023/05/07 11:41:05;;;;;;;3.33;2.27;;;;;;;;;;5008074;28;20542;-85
2023/05/07 11:43:35;;;;;;;4.47;2.83;;;6.40;99.90;;;;;;5014139;28;20657;-85
2023/05/07 11:46:11;;;;;;;8.47;3.23;;;6.40;99.90;;;;;;5047746;28;20200;-85
2023/05/07 11:48:38;;;;;;;10.27;2.97;;;6.50;99.90;;;;;;5014528;28;20192;-85
2023/05/07 11:51:12;;;;;;;3.80;2.40;;;6.40;99.90;;;;;;4995556;28;20189;-83
2023/05/07 11:53:40;;;;;;;4.03;3.10;;;6.40;99.90;;;;;;5008703;28;20178;-82
2023/05/07 11:56:16;;;;;;;7.13;2.20;;;6.40;99.90;;;;;;5010644;28;20559;-84
2023/05/07 11:58:43;;;;;;;4.63;2.30;;;6.40;99.90;;;;;;5013831;28;20180;-83
2023/05/07 12:01:11;;;;;;;2.27;1.70;;;6.40;99.90;;;;;;5013219;28;20606;-83
2023/05/07 12:03:37;;;;;;;2.23;2.00;;;6.40;99.90;;;;;;5013179;28;20280;-84
2023/05/07 12:06:06;;;;;;;2.47;1.90;;;6.40;99.90;;;;;;5013958;28;20181;-85
2023/05/07 12:08:32;;;;;;;2.63;1.70;;;;;;;;;;5012784;28;20212;-86
2023/05/07 12:10:57;;;;;;;3.27;2.23;;;6.30;99.90;;;;;;5011849;28;20673;-86
2023/05/07 12:13:31;;;;;;;18.60;6.27;;;6.30;99.90;;;;;;5010825;28;20201;-85
2023/05/07 12:15:57;;;;;;;9.13;4.70;;;;;;;;;;5009151;28;20269;-83
2023/05/07 12:18:23;;;;;;;5.27;2.90;;;;;;;;;;5007850;28;20674;-84
2023/05/07 12:20:50;;;;;;;6.60;2.73;;;6.40;99.90;;;;;;4994351;28;20209;-83
2023/05/07 12:23:17;;;;;;;16.57;6.10;;;6.40;99.90;;;;;;5010714;28;20188;-87
2023/05/07 12:25:47;;;;;;;4.77;3.07;;;6.40;99.90;;;;;;4990192;28;20189;-85
2023/05/07 12:28:15;;;;;;;2.80;2.50;;;6.50;99.90;;;;;;5007693;28;20268;-85
2023/05/07 12:30:41;;;;;;;3.50;2.50;;;;;;;;;;5041724;28;20208;-83
2023/05/07 12:33:08;;;;;;;3.53;2.27;;;6.50;99.90;;;;;;5012291;28;20185;-83
2023/05/07 12:35:39;;;;;;;2.53;2.33;;;6.50;99.90;;;;;;5012774;28;20178;-83
2023/05/07 12:38:17;;;;;;;4.20;2.00;;;6.50;99.90;;;;;;5010564;28;20275;-85
2023/05/07 12:40:51;;;;;;;2.30;1.83;;;6.40;99.90;;;;;;5009700;28;20195;-83
2023/05/07 12:43:21;;;;;;;3.00;2.33;;;6.50;99.90;;;;;;5040781;28;20181;-82
2023/05/07 12:45:50;;;;;;;3.57;2.57;;;6.50;99.90;;;;;;5007689;28;20213;-84
2023/05/07 12:48:16;;;;;;;3.47;2.87;;;;;;;;;;5006666;28;20689;-83
2023/05/07 12:50:43;;;;;;;3.03;2.50;;;6.50;99.90;;;;;;5006853;28;20177;-83
2023/05/07 12:53:11;;;;;;;3.53;2.47;;;6.50;99.90;;;;;;5013016;28;20180;-85
2023/05/07 12:55:48;;;;;;;6.27;4.20;;;6.50;99.90;;;;;;5037008;28;20185;-85
2023/05/07 12:58:24;;;;;;;7.30;3.37;;;6.60;99.90;;;;;;5010034;28;20599;-85
2023/05/07 13:00:51;;;;;;;4.87;2.63;;;6.70;99.90;;;;;;5045134;28;20179;-86
2023/05/07 13:03:31;;;;;;;3.00;2.40;;;6.70;99.90;;;;;;5009932;28;20535;-85
2023/05/07 13:06:05;;;;;;;7.53;2.30;;;6.60;99.90;;;;;;5012170;28;20183;-84
2023/05/07 13:08:32;;;;;;;8.40;3.13;;;6.60;99.90;;;;;;5010748;28;20193;-85